Terminal Aerodrome Forecast
Issued by NWS Sioux Falls, SD

Home | Current Version | Previous Version | Text Only | Print | Product List | Glossary Off
Versions: 1 2 3 4 5 6 7 8 9 10 11 12 13 14 15 16 17 18 19 20 21 22 23 24 25 26 27

000
FTUS43 KFSD 232330
TAFSUX
TAF
KSUX 232330Z 2400/2424 14012KT P6SM SCT025 BKN050
     FM240800 13007KT P6SM BKN035
      TEMPO 2408/2412 5SM -TSRA BR BKN025CB
     FM241500 15010KT P6SM BKN035
     FM242200 15010KT P6SM SCT040=

USA.gov is the U.S. government's official web portal to all federal, state and local government web resources and services.